sensor_id;sensor_type;location;lat;lon;timestamp;P1;durP1;ratioP1;P2;durP2;ratioP2
22515;SDS011;11424;48.860;9.624;2024-02-04T00:02:38;194.8;;;374.6;;
22515;SDS011;11424;48.860;9.624;2024-02-04T00:07:38;206;;;396.6;;
22515;SDS011;11424;48.860;9.624;2024-02-04T00:12:38;184.3;;;374.8;;
22515;SDS011;11424;48.860;9.624;2024-02-04T00:17:38;204.2;;;396.2;;
22515;SDS011;11424;48.860;9.624;2024-02-04T00:22:38;160.9;;;338.3;;
22515;SDS011;11424;48.860;9.624;2024-02-04T00:27:38;187.8;;;376;;
22515;SDS011;11424;48.860;9.624;2024-02-04T00:32:38;204.9;;;396.3;;
22515;SDS011;11424;48.860;9.624;2024-02-04T00:37:38;214.3;;;410.8;;
22515;SDS011;11424;48.860;9.624;2024-02-04T00:42:38;174.8;;;357.1;;
22515;SDS011;11424;48.860;9.624;2024-02-04T00:47:38;200.6;;;395;;
22515;SDS011;11424;48.860;9.624;2024-02-04T00:52:38;239.7;;;432.4;;
22515;SDS011;11424;48.860;9.624;2024-02-04T00:57:38;201.6;;;385.3;;
22515;SDS011;11424;48.860;9.624;2024-02-04T01:02:38;188.9;;;375.4;;
22515;SDS011;11424;48.860;9.624;2024-02-04T01:07:38;176;;;348.2;;
22515;SDS011;11424;48.860;9.624;2024-02-04T01:12:38;158.1;;;316.3;;
22515;SDS011;11424;48.860;9.624;2024-02-04T01:17:38;180.3;;;349.7;;
22515;SDS011;11424;48.860;9.624;2024-02-04T01:22:38;182.9;;;354.1;;
22515;SDS011;11424;48.860;9.624;2024-02-04T01:27:38;152.9;;;311;;
22515;SDS011;11424;48.860;9.624;2024-02-04T01:32:38;216.4;;;398.5;;
22515;SDS011;11424;48.860;9.624;2024-02-04T01:37:38;160.8;;;320.4;;
22515;SDS011;11424;48.860;9.624;2024-02-04T01:42:38;149.8;;;299;;
22515;SDS011;11424;48.860;9.624;2024-02-04T01:47:38;181.9;;;353;;
22515;SDS011;11424;48.860;9.624;2024-02-04T01:52:39;176.8;;;347.1;;
22515;SDS011;11424;48.860;9.624;2024-02-04T01:57:38;169.9;;;330.7;;
22515;SDS011;11424;48.860;9.624;2024-02-04T02:02:39;162.8;;;319;;
22515;SDS011;11424;48.860;9.624;2024-02-04T02:07:39;152.5;;;297.9;;
22515;SDS011;11424;48.860;9.624;2024-02-04T02:12:40;154.1;;;292.9;;
22515;SDS011;11424;48.860;9.624;2024-02-04T02:17:41;183.6;;;344.7;;
22515;SDS011;11424;48.860;9.624;2024-02-04T02:22:39;229.7;;;388.7;;
22515;SDS011;11424;48.860;9.624;2024-02-04T02:27:45;171;;;321.5;;
22515;SDS011;11424;48.860;9.624;2024-02-04T02:32:38;147;;;288.4;;
22515;SDS011;11424;48.860;9.624;2024-02-04T02:37:40;156.8;;;307.5;;
22515;SDS011;11424;48.860;9.624;2024-02-04T02:42:39;177;;;337.8;;
22515;SDS011;11424;48.860;9.624;2024-02-04T02:47:39;278.8;;;449.8;;
22515;SDS011;11424;48.860;9.624;2024-02-04T02:52:39;173;;;340.6;;
22515;SDS011;11424;48.860;9.624;2024-02-04T02:57:39;179.8;;;333.7;;
22515;SDS011;11424;48.860;9.624;2024-02-04T03:02:39;145;;;292.3;;
22515;SDS011;11424;48.860;9.624;2024-02-04T03:07:39;145;;;285.7;;
22515;SDS011;11424;48.860;9.624;2024-02-04T03:12:39;148.8;;;287.4;;
22515;SDS011;11424;48.860;9.624;2024-02-04T03:17:39;143.8;;;282.2;;
22515;SDS011;11424;48.860;9.624;2024-02-04T03:22:38;157.4;;;305.4;;
22515;SDS011;11424;48.860;9.624;2024-02-04T03:27:39;151.6;;;309.6;;
22515;SDS011;11424;48.860;9.624;2024-02-04T03:32:39;194.3;;;374;;
22515;SDS011;11424;48.860;9.624;2024-02-04T03:37:39;238.5;;;408.4;;
22515;SDS011;11424;48.860;9.624;2024-02-04T03:42:39;179.1;;;350.8;;
22515;SDS011;11424;48.860;9.624;2024-02-04T03:47:39;151.3;;;302.7;;
22515;SDS011;11424;48.860;9.624;2024-02-04T03:52:39;214.1;;;385.1;;
22515;SDS011;11424;48.860;9.624;2024-02-04T03:57:39;195.6;;;372.4;;
22515;SDS011;11424;48.860;9.624;2024-02-04T04:02:39;160.7;;;322.6;;
22515;SDS011;11424;48.860;9.624;2024-02-04T04:07:39;167.1;;;328.5;;
22515;SDS011;11424;48.860;9.624;2024-02-04T04:12:39;158.5;;;324;;
22515;SDS011;11424;48.860;9.624;2024-02-04T04:17:39;174.1;;;357.2;;
22515;SDS011;11424;48.860;9.624;2024-02-04T04:22:39;128.1;;;269.5;;
22515;SDS011;11424;48.860;9.624;2024-02-04T04:27:39;153.7;;;310.4;;
22515;SDS011;11424;48.860;9.624;2024-02-04T04:32:39;154.4;;;311.8;;
22515;SDS011;11424;48.860;9.624;2024-02-04T04:37:39;171.7;;;336.2;;
22515;SDS011;11424;48.860;9.624;2024-02-04T04:42:39;185.7;;;367.3;;
22515;SDS011;11424;48.860;9.624;2024-02-04T04:47:39;427.4;;;624.1;;
22515;SDS011;11424;48.860;9.624;2024-02-04T04:52:39;377.6;;;565.7;;
22515;SDS011;11424;48.860;9.624;2024-02-04T04:57:39;366.5;;;547.6;;
22515;SDS011;11424;48.860;9.624;2024-02-04T05:02:39;362.8;;;543.9;;
22515;SDS011;11424;48.860;9.624;2024-02-04T05:07:39;377.7;;;563.3;;
22515;SDS011;11424;48.860;9.624;2024-02-04T05:12:39;400.3;;;595.4;;
22515;SDS011;11424;48.860;9.624;2024-02-04T05:17:39;323.9;;;499.4;;
22515;SDS011;11424;48.860;9.624;2024-02-04T05:22:39;331.3;;;506.6;;
22515;SDS011;11424;48.860;9.624;2024-02-04T05:27:39;344.8;;;527.8;;
22515;SDS011;11424;48.860;9.624;2024-02-04T05:32:39;383.6;;;581.5;;
22515;SDS011;11424;48.860;9.624;2024-02-04T05:37:39;328.1;;;502.2;;
22515;SDS011;11424;48.860;9.624;2024-02-04T05:42:39;322.8;;;491;;
22515;SDS011;11424;48.860;9.624;2024-02-04T05:47:39;309.3;;;478.6;;
22515;SDS011;11424;48.860;9.624;2024-02-04T05:52:39;326.6;;;503.5;;
22515;SDS011;11424;48.860;9.624;2024-02-04T05:57:39;352.5;;;534.3;;
22515;SDS011;11424;48.860;9.624;2024-02-04T06:02:39;356.7;;;541.9;;
22515;SDS011;11424;48.860;9.624;2024-02-04T06:07:39;343.5;;;523.8;;
22515;SDS011;11424;48.860;9.624;2024-02-04T06:12:39;369.7;;;562.3;;
22515;SDS011;11424;48.860;9.624;2024-02-04T06:17:39;341.3;;;517.2;;
22515;SDS011;11424;48.860;9.624;2024-02-04T06:22:39;352.3;;;537.6;;
22515;SDS011;11424;48.860;9.624;2024-02-04T06:27:39;335.3;;;513.6;;
22515;SDS011;11424;48.860;9.624;2024-02-04T06:32:39;343.6;;;526.1;;
22515;SDS011;11424;48.860;9.624;2024-02-04T06:37:40;373;;;563;;
22515;SDS011;11424;48.860;9.624;2024-02-04T06:42:39;381.5;;;573.5;;
22515;SDS011;11424;48.860;9.624;2024-02-04T06:47:39;335.3;;;512.1;;
22515;SDS011;11424;48.860;9.624;2024-02-04T06:52:39;392.9;;;578.7;;
22515;SDS011;11424;48.860;9.624;2024-02-04T06:57:39;335.9;;;517;;
22515;SDS011;11424;48.860;9.624;2024-02-04T07:02:39;285.5;;;450.7;;
22515;SDS011;11424;48.860;9.624;2024-02-04T07:07:39;240.8;;;393.8;;
22515;SDS011;11424;48.860;9.624;2024-02-04T07:12:39;314.3;;;489;;
22515;SDS011;11424;48.860;9.624;2024-02-04T07:17:39;284.2;;;446.7;;
22515;SDS011;11424;48.860;9.624;2024-02-04T07:22:39;283.7;;;449.7;;
22515;SDS011;11424;48.860;9.624;2024-02-04T07:27:39;298.5;;;462.9;;
22515;SDS011;11424;48.860;9.624;2024-02-04T07:32:39;306.1;;;477.4;;
22515;SDS011;11424;48.860;9.624;2024-02-04T07:37:39;354.4;;;538.1;;
22515;SDS011;11424;48.860;9.624;2024-02-04T07:42:39;374;;;557.7;;
22515;SDS011;11424;48.860;9.624;2024-02-04T07:47:39;393.7;;;588.5;;
22515;SDS011;11424;48.860;9.624;2024-02-04T07:52:39;398.3;;;588.7;;
22515;SDS011;11424;48.860;9.624;2024-02-04T07:57:40;383.4;;;574.1;;
22515;SDS011;11424;48.860;9.624;2024-02-04T08:02:39;370.2;;;563.6;;
22515;SDS011;11424;48.860;9.624;2024-02-04T08:07:39;372.6;;;559.4;;
22515;SDS011;11424;48.860;9.624;2024-02-04T08:12:39;416.9;;;621.5;;
22515;SDS011;11424;48.860;9.624;2024-02-04T08:17:39;341.3;;;523.1;;
22515;SDS011;11424;48.860;9.624;2024-02-04T08:22:39;328.8;;;507.4;;
22515;SDS011;11424;48.860;9.624;2024-02-04T08:27:39;405.7;;;599;;
22515;SDS011;11424;48.860;9.624;2024-02-04T08:32:39;353.8;;;532.8;;
22515;SDS011;11424;48.860;9.624;2024-02-04T08:37:39;295.6;;;460.1;;
22515;SDS011;11424;48.860;9.624;2024-02-04T08:42:39;309.7;;;484.7;;
22515;SDS011;11424;48.860;9.624;2024-02-04T08:47:39;235.3;;;384.3;;
22515;SDS011;11424;48.860;9.624;2024-02-04T08:52:39;244.4;;;404.2;;
22515;SDS011;11424;48.860;9.624;2024-02-04T08:57:39;239.6;;;397.5;;
22515;SDS011;11424;48.860;9.624;2024-02-04T09:02:39;224;;;374.8;;
22515;SDS011;11424;48.860;9.624;2024-02-04T09:07:39;200.3;;;339.1;;
22515;SDS011;11424;48.860;9.624;2024-02-04T09:12:39;222.3;;;360.1;;
22515;SDS011;11424;48.860;9.624;2024-02-04T09:17:39;308.2;;;471.3;;
22515;SDS011;11424;48.860;9.624;2024-02-04T09:22:39;270.2;;;433;;
22515;SDS011;11424;48.860;9.624;2024-02-04T09:27:39;296.5;;;464.7;;
22515;SDS011;11424;48.860;9.624;2024-02-04T09:32:39;324.1;;;502.5;;
22515;SDS011;11424;48.860;9.624;2024-02-04T09:37:39;329.2;;;513.2;;
22515;SDS011;11424;48.860;9.624;2024-02-04T09:42:39;324.2;;;500.6;;
22515;SDS011;11424;48.860;9.624;2024-02-04T09:47:39;354;;;539.8;;
22515;SDS011;11424;48.860;9.624;2024-02-04T09:52:39;356.7;;;545.7;;
22515;SDS011;11424;48.860;9.624;2024-02-04T09:57:39;328.8;;;498.9;;
22515;SDS011;11424;48.860;9.624;2024-02-04T10:02:40;267.5;;;430.7;;
22515;SDS011;11424;48.860;9.624;2024-02-04T10:07:39;194.8;;;332.8;;
22515;SDS011;11424;48.860;9.624;2024-02-04T10:12:39;210.3;;;362;;
22515;SDS011;11424;48.860;9.624;2024-02-04T10:17:41;183.6;;;316.4;;
22515;SDS011;11424;48.860;9.624;2024-02-04T10:22:39;262.1;;;425.3;;
22515;SDS011;11424;48.860;9.624;2024-02-04T10:27:40;237.3;;;393.4;;
22515;SDS011;11424;48.860;9.624;2024-02-04T10:32:39;237.5;;;393.9;;
22515;SDS011;11424;48.860;9.624;2024-02-04T10:37:39;265.2;;;421.2;;
22515;SDS011;11424;48.860;9.624;2024-02-04T10:42:39;240;;;394.6;;
22515;SDS011;11424;48.860;9.624;2024-02-04T10:47:39;168;;;293.6;;
22515;SDS011;11424;48.860;9.624;2024-02-04T10:52:39;137.6;;;245.2;;
22515;SDS011;11424;48.860;9.624;2024-02-04T10:57:39;146;;;252.3;;
22515;SDS011;11424;48.860;9.624;2024-02-04T11:02:39;169.6;;;300.5;;
22515;SDS011;11424;48.860;9.624;2024-02-04T11:07:39;206.1;;;348.4;;
22515;SDS011;11424;48.860;9.624;2024-02-04T11:12:39;126.8;;;214.2;;
22515;SDS011;11424;48.860;9.624;2024-02-04T11:17:51;108.5;;;172.2;;
22515;SDS011;11424;48.860;9.624;2024-02-04T11:22:43;334;;;543.1;;
22515;SDS011;11424;48.860;9.624;2024-02-04T11:27:39;308.5;;;511.8;;
22515;SDS011;11424;48.860;9.624;2024-02-04T11:32:40;210.5;;;266.7;;
22515;SDS011;11424;48.860;9.624;2024-02-04T11:37:39;167.2;;;189.3;;
22515;SDS011;11424;48.860;9.624;2024-02-04T11:42:39;177.7;;;227.9;;
22515;SDS011;11424;48.860;9.624;2024-02-04T11:47:39;188.9;;;250;;
22515;SDS011;11424;48.860;9.624;2024-02-04T11:52:39;164.8;;;213.2;;
22515;SDS011;11424;48.860;9.624;2024-02-04T11:57:39;163.9;;;204.5;;
22515;SDS011;11424;48.860;9.624;2024-02-04T12:02:39;168.4;;;213.4;;
22515;SDS011;11424;48.860;9.624;2024-02-04T12:07:39;78.5;;;108.9;;
22515;SDS011;11424;48.860;9.624;2024-02-04T12:12:39;66.1;;;93.8;;
22515;SDS011;11424;48.860;9.624;2024-02-04T12:17:39;96.2;;;156.3;;
22515;SDS011;11424;48.860;9.624;2024-02-04T12:22:39;86.8;;;130.1;;
22515;SDS011;11424;48.860;9.624;2024-02-04T12:27:39;87.1;;;132.7;;
22515;SDS011;11424;48.860;9.624;2024-02-04T12:32:39;139.9;;;301.5;;
22515;SDS011;11424;48.860;9.624;2024-02-04T12:37:49;124.6;;;278.4;;
22515;SDS011;11424;48.860;9.624;2024-02-04T12:42:39;113.1;;;242.3;;
22515;SDS011;11424;48.860;9.624;2024-02-04T12:47:39;153;;;321.7;;
22515;SDS011;11424;48.860;9.624;2024-02-04T12:52:39;116.8;;;225.2;;
22515;SDS011;11424;48.860;9.624;2024-02-04T12:57:39;116.8;;;237.5;;
22515;SDS011;11424;48.860;9.624;2024-02-04T13:02:39;90.9;;;176.4;;
22515;SDS011;11424;48.860;9.624;2024-02-04T13:07:39;133.6;;;297.6;;
22515;SDS011;11424;48.860;9.624;2024-02-04T13:12:39;106.5;;;227.5;;
22515;SDS011;11424;48.860;9.624;2024-02-04T13:17:39;139.2;;;294.8;;
22515;SDS011;11424;48.860;9.624;2024-02-04T13:22:39;147.4;;;303.9;;
22515;SDS011;11424;48.860;9.624;2024-02-04T13:27:39;145.6;;;323;;
22515;SDS011;11424;48.860;9.624;2024-02-04T13:32:39;138;;;300.4;;
22515;SDS011;11424;48.860;9.624;2024-02-04T13:37:39;194.8;;;387.3;;
22515;SDS011;11424;48.860;9.624;2024-02-04T13:42:39;147;;;294.3;;
22515;SDS011;11424;48.860;9.624;2024-02-04T13:47:39;141.4;;;287.9;;
22515;SDS011;11424;48.860;9.624;2024-02-04T13:52:39;125.1;;;259.6;;
22515;SDS011;11424;48.860;9.624;2024-02-04T13:57:39;134.6;;;261.2;;
22515;SDS011;11424;48.860;9.624;2024-02-04T14:02:39;110;;;210.3;;
22515;SDS011;11424;48.860;9.624;2024-02-04T14:07:39;104.9;;;198.1;;
22515;SDS011;11424;48.860;9.624;2024-02-04T14:12:39;90.4;;;172.8;;
22515;SDS011;11424;48.860;9.624;2024-02-04T14:17:39;81.6;;;152;;
22515;SDS011;11424;48.860;9.624;2024-02-04T14:22:39;130.5;;;220.6;;
22515;SDS011;11424;48.860;9.624;2024-02-04T14:27:39;150.8;;;300;;
22515;SDS011;11424;48.860;9.624;2024-02-04T14:32:39;184.1;;;341.4;;
22515;SDS011;11424;48.860;9.624;2024-02-04T14:37:39;174.1;;;324.3;;
22515;SDS011;11424;48.860;9.624;2024-02-04T14:42:39;128.9;;;245.7;;
22515;SDS011;11424;48.860;9.624;2024-02-04T14:47:39;132.8;;;254;;
22515;SDS011;11424;48.860;9.624;2024-02-04T14:52:39;142.2;;;268.3;;
22515;SDS011;11424;48.860;9.624;2024-02-04T14:57:39;120.1;;;234.4;;
22515;SDS011;11424;48.860;9.624;2024-02-04T15:02:39;167;;;295.8;;
22515;SDS011;11424;48.860;9.624;2024-02-04T15:07:39;121;;;227.8;;
22515;SDS011;11424;48.860;9.624;2024-02-04T15:12:39;141.4;;;264.8;;
22515;SDS011;11424;48.860;9.624;2024-02-04T15:17:39;129;;;238.5;;
22515;SDS011;11424;48.860;9.624;2024-02-04T15:22:39;141.4;;;272.1;;
22515;SDS011;11424;48.860;9.624;2024-02-04T15:27:39;137.2;;;266.1;;
22515;SDS011;11424;48.860;9.624;2024-02-04T15:32:39;136.7;;;260.4;;
22515;SDS011;11424;48.860;9.624;2024-02-04T15:37:39;104;;;198.8;;
22515;SDS011;11424;48.860;9.624;2024-02-04T15:42:40;122.5;;;235.1;;
22515;SDS011;11424;48.860;9.624;2024-02-04T15:47:40;121.3;;;237.4;;
22515;SDS011;11424;48.860;9.624;2024-02-04T15:52:39;110.3;;;210.6;;
22515;SDS011;11424;48.860;9.624;2024-02-04T15:57:39;105.3;;;200.9;;
22515;SDS011;11424;48.860;9.624;2024-02-04T16:02:40;90.4;;;175.4;;
22515;SDS011;11424;48.860;9.624;2024-02-04T16:07:39;103.6;;;199.5;;
22515;SDS011;11424;48.860;9.624;2024-02-04T16:12:39;109.2;;;208.8;;
22515;SDS011;11424;48.860;9.624;2024-02-04T16:17:39;159;;;303.9;;
22515;SDS011;11424;48.860;9.624;2024-02-04T16:22:39;130.4;;;265.4;;
22515;SDS011;11424;48.860;9.624;2024-02-04T16:27:39;152.2;;;288.7;;
22515;SDS011;11424;48.860;9.624;2024-02-04T16:32:39;114.8;;;231.1;;
22515;SDS011;11424;48.860;9.624;2024-02-04T16:37:39;129.5;;;252.1;;
22515;SDS011;11424;48.860;9.624;2024-02-04T16:42:39;131.5;;;254.5;;
22515;SDS011;11424;48.860;9.624;2024-02-04T16:47:39;117.8;;;218.8;;
22515;SDS011;11424;48.860;9.624;2024-02-04T16:52:39;110.5;;;204.3;;
22515;SDS011;11424;48.860;9.624;2024-02-04T16:57:39;160.9;;;274.6;;
22515;SDS011;11424;48.860;9.624;2024-02-04T17:02:39;109;;;212.7;;
22515;SDS011;11424;48.860;9.624;2024-02-04T17:07:40;162;;;297.5;;
22515;SDS011;11424;48.860;9.624;2024-02-04T17:12:40;113.8;;;224.7;;
22515;SDS011;11424;48.860;9.624;2024-02-04T17:17:40;139.6;;;262.2;;
22515;SDS011;11424;48.860;9.624;2024-02-04T17:22:40;159.3;;;303.9;;
22515;SDS011;11424;48.860;9.624;2024-02-04T17:27:40;147.6;;;299.9;;
22515;SDS011;11424;48.860;9.624;2024-02-04T17:32:40;164.3;;;330.8;;
22515;SDS011;11424;48.860;9.624;2024-02-04T17:37:39;176.2;;;366.9;;
22515;SDS011;11424;48.860;9.624;2024-02-04T17:42:39;109.9;;;212.4;;
22515;SDS011;11424;48.860;9.624;2024-02-04T17:47:39;127.5;;;273.7;;
22515;SDS011;11424;48.860;9.624;2024-02-04T17:52:39;161.2;;;338.1;;
22515;SDS011;11424;48.860;9.624;2024-02-04T17:57:39;176.9;;;360.6;;
22515;SDS011;11424;48.860;9.624;2024-02-04T18:02:39;144.9;;;321.1;;
22515;SDS011;11424;48.860;9.624;2024-02-04T18:07:40;132.9;;;293.1;;
22515;SDS011;11424;48.860;9.624;2024-02-04T18:12:39;141.8;;;313.4;;
22515;SDS011;11424;48.860;9.624;2024-02-04T18:17:39;138.5;;;300.7;;
22515;SDS011;11424;48.860;9.624;2024-02-04T18:22:39;143;;;307.5;;
22515;SDS011;11424;48.860;9.624;2024-02-04T18:27:39;147.3;;;313.7;;
22515;SDS011;11424;48.860;9.624;2024-02-04T18:32:39;185.9;;;373.9;;
22515;SDS011;11424;48.860;9.624;2024-02-04T18:37:39;139.2;;;299.2;;
22515;SDS011;11424;48.860;9.624;2024-02-04T18:42:39;180;;;363.3;;
22515;SDS011;11424;48.860;9.624;2024-02-04T18:47:40;162.9;;;331.8;;
22515;SDS011;11424;48.860;9.624;2024-02-04T18:52:40;160.6;;;327.3;;
22515;SDS011;11424;48.860;9.624;2024-02-04T18:57:40;154.8;;;317.8;;
22515;SDS011;11424;48.860;9.624;2024-02-04T19:02:40;143.6;;;303.5;;
22515;SDS011;11424;48.860;9.624;2024-02-04T19:07:40;169.2;;;340.2;;
22515;SDS011;11424;48.860;9.624;2024-02-04T19:12:40;155.1;;;310.3;;
22515;SDS011;11424;48.860;9.624;2024-02-04T19:17:40;156.2;;;315.5;;
22515;SDS011;11424;48.860;9.624;2024-02-04T19:22:40;132.4;;;282.1;;
22515;SDS011;11424;48.860;9.624;2024-02-04T19:27:44;158.6;;;317.6;;
22515;SDS011;11424;48.860;9.624;2024-02-04T19:32:41;145.9;;;296.3;;
22515;SDS011;11424;48.860;9.624;2024-02-04T19:37:40;174.4;;;343.9;;
22515;SDS011;11424;48.860;9.624;2024-02-04T19:42:40;129.7;;;275.7;;
22515;SDS011;11424;48.860;9.624;2024-02-04T19:47:40;125.4;;;259.7;;
22515;SDS011;11424;48.860;9.624;2024-02-04T19:52:40;144.5;;;297.7;;
22515;SDS011;11424;48.860;9.624;2024-02-04T19:57:40;146.1;;;298.9;;
22515;SDS011;11424;48.860;9.624;2024-02-04T20:02:40;147.6;;;302.3;;
22515;SDS011;11424;48.860;9.624;2024-02-04T20:07:40;160.5;;;316.3;;
22515;SDS011;11424;48.860;9.624;2024-02-04T20:12:40;129.7;;;273.2;;
22515;SDS011;11424;48.860;9.624;2024-02-04T20:17:40;153.2;;;307.5;;
22515;SDS011;11424;48.860;9.624;2024-02-04T20:22:40;157;;;318;;
22515;SDS011;11424;48.860;9.624;2024-02-04T20:27:40;157.9;;;315.3;;
22515;SDS011;11424;48.860;9.624;2024-02-04T20:32:40;139.5;;;290.8;;
22515;SDS011;11424;48.860;9.624;2024-02-04T20:37:40;141.5;;;284;;
22515;SDS011;11424;48.860;9.624;2024-02-04T20:42:40;153.9;;;311.5;;
22515;SDS011;11424;48.860;9.624;2024-02-04T20:47:40;149.1;;;300.8;;
22515;SDS011;11424;48.860;9.624;2024-02-04T20:52:40;182.6;;;360;;
22515;SDS011;11424;48.860;9.624;2024-02-04T20:57:40;164.3;;;334.7;;
22515;SDS011;11424;48.860;9.624;2024-02-04T21:02:40;174.8;;;350.9;;
22515;SDS011;11424;48.860;9.624;2024-02-04T21:07:40;145.7;;;300.9;;
22515;SDS011;11424;48.860;9.624;2024-02-04T21:12:40;155.3;;;311.2;;
22515;SDS011;11424;48.860;9.624;2024-02-04T21:17:40;161.8;;;318.5;;
22515;SDS011;11424;48.860;9.624;2024-02-04T21:22:40;144.6;;;290.8;;
22515;SDS011;11424;48.860;9.624;2024-02-04T21:27:40;122.1;;;250.5;;
22515;SDS011;11424;48.860;9.624;2024-02-04T21:32:41;140.3;;;279.1;;
22515;SDS011;11424;48.860;9.624;2024-02-04T21:37:40;129.2;;;257.5;;
22515;SDS011;11424;48.860;9.624;2024-02-04T21:42:40;136;;;258.6;;
22515;SDS011;11424;48.860;9.624;2024-02-04T21:47:40;174.2;;;316.9;;
22515;SDS011;11424;48.860;9.624;2024-02-04T21:52:40;146.8;;;316.7;;
22515;SDS011;11424;48.860;9.624;2024-02-04T21:57:40;146.9;;;313.3;;
22515;SDS011;11424;48.860;9.624;2024-02-04T22:02:40;103.6;;;206.2;;
22515;SDS011;11424;48.860;9.624;2024-02-04T22:07:40;95.2;;;171.5;;
22515;SDS011;11424;48.860;9.624;2024-02-04T22:12:40;88.6;;;170.3;;
22515;SDS011;11424;48.860;9.624;2024-02-04T22:17:40;103.2;;;184.1;;
22515;SDS011;11424;48.860;9.624;2024-02-04T22:22:40;89.6;;;166.3;;
22515;SDS011;11424;48.860;9.624;2024-02-04T22:27:40;79.7;;;153.9;;
22515;SDS011;11424;48.860;9.624;2024-02-04T22:32:40;85.1;;;147.9;;
22515;SDS011;11424;48.860;9.624;2024-02-04T22:37:40;73.1;;;128.6;;
22515;SDS011;11424;48.860;9.624;2024-02-04T22:42:40;85.6;;;158;;
22515;SDS011;11424;48.860;9.624;2024-02-04T22:47:40;73.7;;;134;;
22515;SDS011;11424;48.860;9.624;2024-02-04T22:52:40;73.9;;;143;;
22515;SDS011;11424;48.860;9.624;2024-02-04T22:57:40;75;;;135.8;;
22515;SDS011;11424;48.860;9.624;2024-02-04T23:02:40;75;;;131.6;;
22515;SDS011;11424;48.860;9.624;2024-02-04T23:07:40;88.7;;;162.5;;
22515;SDS011;11424;48.860;9.624;2024-02-04T23:12:40;80.7;;;147.2;;
22515;SDS011;11424;48.860;9.624;2024-02-04T23:17:40;104.5;;;195.7;;
22515;SDS011;11424;48.860;9.624;2024-02-04T23:22:40;118.2;;;217.5;;
22515;SDS011;11424;48.860;9.624;2024-02-04T23:27:40;126.1;;;231.2;;
22515;SDS011;11424;48.860;9.624;2024-02-04T23:32:40;113;;;210;;
22515;SDS011;11424;48.860;9.624;2024-02-04T23:37:40;138.1;;;250.2;;
22515;SDS011;11424;48.860;9.624;2024-02-04T23:42:40;109;;;201.6;;
22515;SDS011;11424;48.860;9.624;2024-02-04T23:47:40;110.6;;;196.6;;
22515;SDS011;11424;48.860;9.624;2024-02-04T23:52:40;100.4;;;185.6;;
22515;SDS011;11424;48.860;9.624;2024-02-04T23:57:40;123.9;;;228.1;;
